createdAt,value
2018-06-01T00:02:23.451Z,19.80
2018-06-01T00:04:51.617Z,20.97
2018-06-01T00:07:19.705Z,21.53
2018-06-01T00:09:49.870Z,20.03
2018-06-01T00:12:18.167Z,19.67
2018-06-01T00:14:46.284Z,19.40
2018-06-01T00:17:14.372Z,20.10
2018-06-01T00:19:42.476Z,19.70
2018-06-01T00:22:11.275Z,20.40
2018-06-01T00:24:40.859Z,20.50
2018-06-01T00:27:08.983Z,18.57
2018-06-01T00:29:37.065Z,19.13
2018-06-01T00:32:05.420Z,20.20
2018-06-01T00:34:33.505Z,19.43
2018-06-01T00:37:01.969Z,20.20
2018-06-01T00:39:30.072Z,20.40
2018-06-01T00:41:58.191Z,22.13
2018-06-01T00:44:26.384Z,20.70
2018-06-01T00:46:54.742Z,22.90
2018-06-01T00:49:23.025Z,22.43
2018-06-01T00:51:51.592Z,22.33
2018-06-01T00:54:19.724Z,24.80
2018-06-01T00:56:49.243Z,22.33
2018-06-01T00:59:17.367Z,21.37
2018-06-01T01:01:45.516Z,22.23
2018-06-01T01:04:13.645Z,22.17
2018-06-01T01:06:42.493Z,23.03
2018-06-01T01:09:10.604Z,22.97
2018-06-01T01:11:38.785Z,22.97
2018-06-01T01:14:06.879Z,22.53
2018-06-01T01:16:34.950Z,23.77
2018-06-01T01:19:03.059Z,23.37
2018-06-01T01:21:32.134Z,21.70
2018-06-01T01:24:00.211Z,21.30
2018-06-01T01:26:28.319Z,21.60
2018-06-01T01:28:56.408Z,20.20
2018-06-01T01:31:24.505Z,20.73
2018-06-01T01:33:56.798Z,20.30
2018-06-01T01:36:24.917Z,19.10
2018-06-01T01:38:53.019Z,19.53
2018-06-01T01:41:21.348Z,19.83
2018-06-01T01:43:50.196Z,21.87
2018-06-01T01:46:18.337Z,20.70
2018-06-01T01:48:46.616Z,20.67
2018-06-01T01:51:15.577Z,19.07
2018-06-01T01:53:43.687Z,20.00
2018-06-01T01:56:12.572Z,19.77
2018-06-01T01:58:40.664Z,20.80
2018-06-01T02:01:08.793Z,19.27
2018-06-01T02:03:37.655Z,20.47
2018-06-01T02:06:05.735Z,20.40
2018-06-01T02:08:34.072Z,20.37
2018-06-01T02:11:04.894Z,21.80
2018-06-01T02:13:33.009Z,22.67
2018-06-01T02:16:01.129Z,24.73
2018-06-01T02:18:29.219Z,25.00
2018-06-01T02:20:57.315Z,23.90
2018-06-01T02:23:26.345Z,24.67
2018-06-01T02:25:54.534Z,23.57
2018-06-01T02:28:22.873Z,21.57
2018-06-01T02:30:50.964Z,22.60
2018-06-01T02:33:19.042Z,22.03
2018-06-01T02:35:49.061Z,22.80
2018-06-01T02:38:17.158Z,22.70
2018-06-01T02:40:45.925Z,23.63
2018-06-01T02:43:14.009Z,22.93
2018-06-01T02:45:42.176Z,24.47
2018-06-01T02:48:10.300Z,24.40
2018-06-01T02:50:38.444Z,23.17
2018-06-01T02:53:06.524Z,23.53
2018-06-01T02:55:35.604Z,23.83
2018-06-01T02:58:04.373Z,23.43
2018-06-01T03:00:32.465Z,23.93
2018-06-01T03:03:00.923Z,22.70
2018-06-01T03:05:29.119Z,24.47
2018-06-01T03:07:57.208Z,24.63
2018-06-01T03:10:25.285Z,26.13
2018-06-01T03:12:54.154Z,24.53
2018-06-01T03:15:23.005Z,28.03
2018-06-01T03:17:51.119Z,26.97
2018-06-01T03:20:19.206Z,28.07
2018-06-01T03:22:48.067Z,29.70
2018-06-01T03:25:16.156Z,29.43
2018-06-01T03:27:44.288Z,28.37
2018-06-01T03:30:12.604Z,28.57
2018-06-01T03:32:40.740Z,30.97
2018-06-01T03:35:09.527Z,27.30
2018-06-01T03:37:37.624Z,29.17
2018-06-01T03:40:05.716Z,27.70
2018-06-01T03:42:38.656Z,31.13
2018-06-01T03:45:06.728Z,27.57
2018-06-01T03:47:37.048Z,30.37
2018-06-01T03:50:05.127Z,29.97
2018-06-01T03:52:33.378Z,28.97
2018-06-01T03:55:01.481Z,28.40
2018-06-01T03:57:29.571Z,28.60
2018-06-01T03:59:57.659Z,29.50
2018-06-01T04:02:26.148Z,31.07
2018-06-01T04:04:54.239Z,30.03
2018-06-01T04:07:23.172Z,31.30
2018-06-01T04:09:51.264Z,31.33
2018-06-01T04:12:19.389Z,29.50
2018-06-01T04:14:47.464Z,31.30
2018-06-01T04:17:15.569Z,34.20
2018-06-01T04:19:43.917Z,31.80
2018-06-01T04:22:12.664Z,32.87
2018-06-01T04:24:40.802Z,30.33
2018-06-01T04:27:08.892Z,32.43
2018-06-01T04:29:37.001Z,31.10
2018-06-01T04:32:05.859Z,30.87
2018-06-01T04:34:33.981Z,30.27
2018-06-01T04:37:02.067Z,30.30
2018-06-01T04:39:30.193Z,31.30
2018-06-01T04:41:58.292Z,31.37
2018-06-01T04:44:26.377Z,32.90
2018-06-01T04:46:54.479Z,32.83
2018-06-01T04:49:22.574Z,33.93
2018-06-01T04:51:50.901Z,34.83
2018-06-01T04:54:19.031Z,34.10
2018-06-01T04:56:47.244Z,36.37
2018-06-01T04:59:15.328Z,29.57
2018-06-01T05:01:43.452Z,28.00
2018-06-01T05:04:11.523Z,23.87
2018-06-01T05:06:40.473Z,23.80
2018-06-01T05:09:08.724Z,26.67
2018-06-01T05:11:36.795Z,24.90
2018-06-01T05:14:04.996Z,26.13
2018-06-01T05:16:33.322Z,27.77
2018-06-01T05:19:02.234Z,31.23
2018-06-01T05:21:30.312Z,34.30
2018-06-01T05:23:58.411Z,35.43
2018-06-01T05:26:26.484Z,35.90
2018-06-01T05:28:54.603Z,37.67
2018-06-01T05:31:23.467Z,40.87
2018-06-01T05:33:51.574Z,42.40
2018-06-01T05:36:19.811Z,42.57
2018-06-01T05:38:47.910Z,48.10
2018-06-01T05:41:16.788Z,53.60
2018-06-01T05:43:44.888Z,51.93
2018-06-01T05:46:13.040Z,61.20
2018-06-01T05:48:41.300Z,64.73
2018-06-01T05:51:09.418Z,64.77
2018-06-01T05:53:37.728Z,61.10
2018-06-01T05:56:05.819Z,61.83
2018-06-01T05:58:33.908Z,61.80
2018-06-01T06:01:02.141Z,56.93
2018-06-01T06:03:30.939Z,51.07
2018-06-01T06:05:59.280Z,48.27
2018-06-01T06:08:27.369Z,43.60
2018-06-01T06:10:55.460Z,42.77
2018-06-01T06:13:23.545Z,41.33
2018-06-01T06:15:51.665Z,39.57
2018-06-01T06:18:20.462Z,42.97
2018-06-01T06:20:48.603Z,42.07
2018-06-01T06:23:17.643Z,42.10
2018-06-01T06:25:46.099Z,42.53
2018-06-01T06:28:14.243Z,41.03
2018-06-01T06:30:42.899Z,36.33
2018-06-01T06:33:11.478Z,34.60
2018-06-01T06:35:39.557Z,38.27
2018-06-01T06:38:07.891Z,38.27
2018-06-01T06:40:36.736Z,35.77
2018-06-01T06:43:04.836Z,34.90
2018-06-01T06:45:32.961Z,30.03
2018-06-01T06:48:01.116Z,28.83
2018-06-01T06:50:29.984Z,32.10
2018-06-01T06:52:58.256Z,32.80
2018-06-01T06:55:26.437Z,32.80
2018-06-01T06:57:54.615Z,30.73
2018-06-01T07:00:23.502Z,26.23
2018-06-01T07:02:52.613Z,25.80
2018-06-01T07:05:20.720Z,26.10
2018-06-01T07:07:48.869Z,23.23
2018-06-01T07:10:16.973Z,26.87
2018-06-01T07:12:45.083Z,24.33
2018-06-01T07:15:14.084Z,31.23
2018-06-01T07:17:42.973Z,34.43
2018-06-01T07:20:11.818Z,39.97
2018-06-01T07:22:40.099Z,41.70
2018-06-01T07:25:08.431Z,45.03
2018-06-01T07:27:39.770Z,50.50
2018-06-01T07:30:08.635Z,48.10
2018-06-01T07:32:37.283Z,52.80
2018-06-01T07:35:05.566Z,48.17
2018-06-01T07:37:33.916Z,50.37
2018-06-01T07:40:02.008Z,52.10
2018-06-01T07:42:30.132Z,53.00
2018-06-01T07:44:58.204Z,52.23
2018-06-01T07:47:26.332Z,54.73
2018-06-01T07:49:54.453Z,54.80
2018-06-01T07:52:22.574Z,55.10
2018-06-01T07:54:50.657Z,55.27
2018-06-01T07:57:18.767Z,56.73
2018-06-01T07:59:47.021Z,59.17
2018-06-01T08:02:15.134Z,57.43
2018-06-01T08:04:44.033Z,59.87
2018-06-01T08:07:12.145Z,58.47
2018-06-01T08:09:40.265Z,55.03
2018-06-01T08:12:08.377Z,45.37
2018-06-01T08:14:36.718Z,40.70
2018-06-01T08:17:05.975Z,36.57
2018-06-01T08:19:34.103Z,37.20
2018-06-01T08:22:02.187Z,37.07
2018-06-01T08:24:30.316Z,39.57
2018-06-01T08:26:58.558Z,41.13
2018-06-01T08:29:26.852Z,41.80
2018-06-01T08:31:54.939Z,41.10
2018-06-01T08:34:23.031Z,41.40
2018-06-01T08:36:51.884Z,38.50
2018-06-01T08:39:27.328Z,40.20
2018-06-01T08:41:56.551Z,41.40
2018-06-01T08:44:24.840Z,39.77
2018-06-01T08:46:52.951Z,39.73
2018-06-01T08:49:21.068Z,38.60
2018-06-01T08:51:49.527Z,39.97
2018-06-01T08:54:18.318Z,37.60
2018-06-01T08:56:46.419Z,39.97
2018-06-01T08:59:15.381Z,41.97
2018-06-01T09:01:43.704Z,40.33
2018-06-01T09:04:12.632Z,40.90
2018-06-01T09:06:41.744Z,40.40
2018-06-01T09:09:09.824Z,41.90
2018-06-01T09:11:37.926Z,42.60
2018-06-01T09:14:06.040Z,42.27
2018-06-01T09:16:34.171Z,43.77
2018-06-01T09:19:03.956Z,46.50
2018-06-01T09:21:32.020Z,45.47
2018-06-01T09:24:00.128Z,45.30
2018-06-01T09:26:28.981Z,44.70
2018-06-01T09:28:58.112Z,48.67
2018-06-01T09:31:27.220Z,47.90
2018-06-01T09:33:56.460Z,46.93
2018-06-01T09:36:24.559Z,48.33
2018-06-01T09:38:52.643Z,51.00
2018-06-01T09:41:21.004Z,50.30
2018-06-01T09:43:49.320Z,49.03
2018-06-01T09:46:17.492Z,51.40
2018-06-01T09:48:46.310Z,50.17
2018-06-01T09:51:14.576Z,48.13
2018-06-01T09:53:45.971Z,43.67
2018-06-01T09:56:14.164Z,46.77
2018-06-01T09:58:43.044Z,45.27
2018-06-01T10:01:11.195Z,44.77
2018-06-01T10:03:40.220Z,46.60
2018-06-01T10:06:08.830Z,49.00
2018-06-01T10:08:37.671Z,48.40
2018-06-01T10:11:08.649Z,51.47
2018-06-01T10:13:37.002Z,50.60
2018-06-01T10:16:05.081Z,52.83
2018-06-01T10:18:33.187Z,51.90
2018-06-01T10:21:02.091Z,52.20
2018-06-01T10:23:31.604Z,51.77
2018-06-01T10:26:01.590Z,56.57
2018-06-01T10:28:31.038Z,54.43
2018-06-01T10:30:59.135Z,56.27
2018-06-01T10:33:30.872Z,53.57
2018-06-01T10:35:58.956Z,52.40
2018-06-01T10:38:27.320Z,51.77
2018-06-01T10:40:55.400Z,49.47
2018-06-01T10:43:23.688Z,49.13
2018-06-01T10:45:52.208Z,48.73
2018-06-01T10:48:21.302Z,48.63
2018-06-01T10:50:50.211Z,47.00
2018-06-01T10:53:18.478Z,44.43
2018-06-01T10:55:47.024Z,44.23
2018-06-01T10:58:15.128Z,46.47
2018-06-01T11:00:43.323Z,46.83
2018-06-01T11:03:11.688Z,45.53
2018-06-01T11:05:39.971Z,47.93
2018-06-01T11:08:08.993Z,52.17
2018-06-01T11:10:37.868Z,52.70
2018-06-01T11:13:07.628Z,54.43
2018-06-01T11:15:37.403Z,60.73
2018-06-01T11:18:06.319Z,61.60
2018-06-01T11:20:36.087Z,64.33
2018-06-01T11:23:04.572Z,65.00
2018-06-01T11:25:34.092Z,70.30
2018-06-01T11:28:03.096Z,70.10
2018-06-01T11:30:31.491Z,72.27
2018-06-01T11:33:00.449Z,75.17
2018-06-01T11:35:29.164Z,73.03
2018-06-01T11:37:57.951Z,81.43
2018-06-01T11:40:26.203Z,75.60
2018-06-01T11:42:54.448Z,81.47
2018-06-01T11:45:22.567Z,75.13
2018-06-01T11:47:52.474Z,79.50
2018-06-01T11:50:21.684Z,73.70
2018-06-01T11:52:49.840Z,72.47
2018-06-01T11:55:19.397Z,76.43
2018-06-01T11:57:47.679Z,73.77
2018-06-01T12:00:16.915Z,79.17
2018-06-01T12:02:45.001Z,78.97
2018-06-01T12:05:13.411Z,79.07
2018-06-01T12:07:41.545Z,79.50
2018-06-01T12:10:10.300Z,74.43
2018-06-01T12:12:40.005Z,72.00
2018-06-01T12:15:09.399Z,72.60
2018-06-01T12:17:37.810Z,76.90
2018-06-01T12:20:06.106Z,74.00
2018-06-01T12:22:34.384Z,73.00
2018-06-01T12:25:02.487Z,77.83
2018-06-01T12:27:30.984Z,73.47
2018-06-01T12:29:59.873Z,75.43
2018-06-01T12:32:29.504Z,79.73
2018-06-01T12:35:00.432Z,74.77
2018-06-01T12:37:28.865Z,76.47
2018-06-01T12:39:57.668Z,79.00
2018-06-01T12:42:26.555Z,80.87
2018-06-01T12:44:54.656Z,78.37
2018-06-01T12:47:23.016Z,80.97
2018-06-01T12:49:51.879Z,80.20
2018-06-01T12:52:20.056Z,85.57
2018-06-01T12:54:48.296Z,86.80
2018-06-01T12:57:18.146Z,79.73
2018-06-01T12:59:46.443Z,80.20
2018-06-01T13:02:14.878Z,79.80
2018-06-01T13:04:43.713Z,80.37
2018-06-01T13:07:12.060Z,83.53
2018-06-01T13:09:40.851Z,85.37
2018-06-01T13:12:09.244Z,85.07
2018-06-01T13:14:37.461Z,85.57
2018-06-01T13:17:06.447Z,86.63
2018-06-01T13:19:34.671Z,86.00
2018-06-01T13:22:03.048Z,82.50
2018-06-01T13:24:31.131Z,88.10
2018-06-01T13:26:59.231Z,82.47
2018-06-01T13:29:27.340Z,86.63
2018-06-01T13:31:55.457Z,88.07
2018-06-01T13:34:25.129Z,89.70
2018-06-01T13:36:53.300Z,93.33
2018-06-01T13:39:24.389Z,90.57
2018-06-01T13:41:52.778Z,91.27
2018-06-01T13:44:20.971Z,96.13
2018-06-01T13:46:49.069Z,92.47
2018-06-01T13:49:17.920Z,99.20
2018-06-01T13:51:46.527Z,83.17
2018-06-01T13:54:15.272Z,75.53
2018-06-01T13:56:44.069Z,68.90
2018-06-01T13:59:13.248Z,70.67
2018-06-01T14:01:41.555Z,64.63
2018-06-01T14:04:14.168Z,61.53
2018-06-01T14:06:43.040Z,60.47
2018-06-01T14:09:11.134Z,59.20
2018-06-01T14:11:42.216Z,61.83
2018-06-01T14:14:10.416Z,60.63
2018-06-01T14:16:40.933Z,62.37
2018-06-01T14:19:09.152Z,62.70
2018-06-01T14:21:37.788Z,61.30
2018-06-01T14:24:06.081Z,59.97
2018-06-01T14:26:34.250Z,61.93
2018-06-01T14:29:03.028Z,57.70
2018-06-01T14:31:32.164Z,60.53
2018-06-01T14:34:00.348Z,61.57
2018-06-01T14:36:28.441Z,58.97
2018-06-01T14:38:56.545Z,62.60
2018-06-01T14:41:27.995Z,65.57
2018-06-01T14:44:01.828Z,62.60
2018-06-01T14:46:30.933Z,67.37
2018-06-01T14:48:59.203Z,67.70
2018-06-01T14:51:27.640Z,73.10
2018-06-01T14:53:55.821Z,73.30
2018-06-01T14:56:23.924Z,79.07
2018-06-01T14:58:52.030Z,75.03
2018-06-01T15:01:21.096Z,80.60
2018-06-01T15:03:50.208Z,129.73
2018-06-01T15:06:19.099Z,122.13
2018-06-01T15:08:47.429Z,111.53
2018-06-01T15:11:16.096Z,102.40
2018-06-01T15:13:44.256Z,89.17
2018-06-01T15:16:12.597Z,89.17
2018-06-01T15:18:40.895Z,91.03
2018-06-01T15:21:09.196Z,86.47
2018-06-01T15:23:39.002Z,88.53
2018-06-01T15:26:08.024Z,90.40
2018-06-01T15:28:36.139Z,87.13
2018-06-01T15:31:04.247Z,87.27
2018-06-01T15:33:32.384Z,84.87
2018-06-01T15:36:00.603Z,87.20
2018-06-01T15:38:28.706Z,87.30
2018-06-01T15:40:57.452Z,86.87
2018-06-01T15:43:25.568Z,82.80
2018-06-01T15:45:53.651Z,87.10
2018-06-01T15:48:21.736Z,85.17
2018-06-01T15:50:50.615Z,86.03
2018-06-01T15:53:18.764Z,83.20
2018-06-01T15:55:46.843Z,86.40
2018-06-01T15:58:15.065Z,80.07
2018-06-01T16:00:43.936Z,82.60
2018-06-01T16:03:12.044Z,85.97
2018-06-01T16:05:40.492Z,79.73
2018-06-01T16:08:08.591Z,84.53
2018-06-01T16:10:36.984Z,81.17
2018-06-01T16:13:05.090Z,80.87
2018-06-01T16:15:35.298Z,81.70
2018-06-01T16:18:03.429Z,81.90
2018-06-01T16:20:31.547Z,81.17
2018-06-01T16:22:59.641Z,74.47
2018-06-01T16:25:28.444Z,75.40
2018-06-01T16:27:56.571Z,71.57
2018-06-01T16:30:24.717Z,69.90
2018-06-01T16:32:52.872Z,66.13
2018-06-01T16:35:20.992Z,59.00
2018-06-01T16:37:49.932Z,62.47
2018-06-01T16:40:19.172Z,62.63
2018-06-01T16:42:47.259Z,62.50
2018-06-01T16:45:15.390Z,59.07
2018-06-01T16:47:44.257Z,57.77
2018-06-01T16:50:12.361Z,53.60
2018-06-01T16:52:40.475Z,52.57
2018-06-01T16:55:08.602Z,52.40
2018-06-01T16:57:37.855Z,51.57
2018-06-01T17:00:05.989Z,51.03
2018-06-01T17:02:34.065Z,50.63
2018-06-01T17:05:02.919Z,53.80
2018-06-01T17:07:32.034Z,51.47
2018-06-01T17:10:04.988Z,51.17
2018-06-01T17:12:33.223Z,47.40
2018-06-01T17:15:01.387Z,46.33
2018-06-01T17:17:30.462Z,46.10
2018-06-01T17:20:05.784Z,43.90
2018-06-01T17:22:34.965Z,41.97
2018-06-01T17:25:05.183Z,42.90
2018-06-01T17:27:41.689Z,44.70
2018-06-01T17:30:11.644Z,44.20
2018-06-01T17:32:39.849Z,40.80
2018-06-01T17:35:08.903Z,38.17
2018-06-01T17:37:37.988Z,39.47
2018-06-01T17:40:06.153Z,38.47
2018-06-01T17:42:35.144Z,39.13
2018-06-01T17:45:04.354Z,38.37
2018-06-01T17:47:38.172Z,40.03
2018-06-01T17:50:07.317Z,39.63
2018-06-01T17:52:36.799Z,38.30
2018-06-01T17:55:08.947Z,34.37
2018-06-01T17:57:41.865Z,33.90
2018-06-01T18:00:11.031Z,32.90
2018-06-01T18:02:39.825Z,35.33
2018-06-01T18:05:08.628Z,34.80
2018-06-01T18:07:48.380Z,36.30
2018-06-01T18:10:24.687Z,39.97
2018-06-01T18:12:53.020Z,37.97
2018-06-01T18:15:21.240Z,36.20
2018-06-01T18:17:49.852Z,36.27
2018-06-01T18:20:18.189Z,36.00
2018-06-01T18:22:47.069Z,36.00
2018-06-01T18:25:16.198Z,36.67
2018-06-01T18:27:46.089Z,37.40
2018-06-01T18:30:15.010Z,35.77
2018-06-01T18:32:45.249Z,37.17
2018-06-01T18:35:15.287Z,37.67
2018-06-01T18:37:44.372Z,38.20
2018-06-01T18:40:13.720Z,37.50
2018-06-01T18:42:43.653Z,39.10
2018-06-01T18:45:14.837Z,39.80
2018-06-01T18:47:42.962Z,37.70
2018-06-01T18:50:11.840Z,38.67
2018-06-01T18:52:40.856Z,37.03
2018-06-01T18:55:09.769Z,38.97
2018-06-01T18:57:38.044Z,38.43
2018-06-01T19:00:06.303Z,37.47
2018-06-01T19:02:37.736Z,38.67
2018-06-01T19:05:05.941Z,39.47
2018-06-01T19:07:34.430Z,41.53
2018-06-01T19:10:06.177Z,38.63
2018-06-01T19:12:35.254Z,40.80
2018-06-01T19:15:05.945Z,39.00
2018-06-01T19:17:34.305Z,38.03
2018-06-01T19:20:04.131Z,36.57
2018-06-01T19:22:38.481Z,36.93
2018-06-01T19:25:16.573Z,37.20
2018-06-01T19:27:53.053Z,36.60
2018-06-01T19:30:21.164Z,36.97
2018-06-01T19:32:53.131Z,37.17
2018-06-01T19:35:32.724Z,39.10
2018-06-01T19:38:18.095Z,36.83
2018-06-01T19:40:46.405Z,42.20
2018-06-01T19:46:15.200Z,40.10
2018-06-01T19:48:47.384Z,38.97
2018-06-01T19:51:22.332Z,40.77
2018-06-01T19:53:56.225Z,39.67
2018-06-01T19:56:24.424Z,39.70
2018-06-01T19:58:53.354Z,46.90
2018-06-01T20:01:23.618Z,41.57
2018-06-01T20:03:52.389Z,41.57
2018-06-01T20:06:20.531Z,40.07
2018-06-01T20:08:50.711Z,42.37
2018-06-01T20:11:20.261Z,43.27
2018-06-01T20:13:48.524Z,42.50
2018-06-01T20:16:20.880Z,43.40
2018-06-01T20:18:50.418Z,44.73
2018-06-01T20:21:22.485Z,43.87
2018-06-01T20:23:55.224Z,43.10
2018-06-01T20:26:25.880Z,44.93
2018-06-01T20:29:01.094Z,48.10
2018-06-01T20:31:40.036Z,48.17
2018-06-01T20:34:10.276Z,47.63
2018-06-01T20:36:39.020Z,48.00
2018-06-01T20:39:10.919Z,47.47
2018-06-01T20:41:39.122Z,46.53
2018-06-01T20:44:11.456Z,48.03
2018-06-01T20:46:41.433Z,47.33
2018-06-01T20:49:10.910Z,46.10
2018-06-01T20:51:49.475Z,45.20
2018-06-01T20:54:24.593Z,42.63
2018-06-01T20:56:54.738Z,44.50
2018-06-01T20:59:24.494Z,45.77
2018-06-01T21:01:55.904Z,46.13
2018-06-01T21:04:24.972Z,46.37
2018-06-01T21:07:08.029Z,46.60
2018-06-01T21:09:37.191Z,46.97
2018-06-01T21:12:06.839Z,48.30
2018-06-01T21:14:34.943Z,48.40
2018-06-01T21:17:04.788Z,49.60
2018-06-01T21:19:33.926Z,51.17
2018-06-01T21:22:04.856Z,50.27
2018-06-01T21:24:34.948Z,50.30
2018-06-01T21:27:03.867Z,52.20
2018-06-01T21:29:36.836Z,48.90
2018-06-01T21:32:05.361Z,50.43
2018-06-01T21:34:33.455Z,49.70
2018-06-01T21:37:01.671Z,54.30
2018-06-01T21:39:29.779Z,54.50
2018-06-01T21:41:58.701Z,52.40
2018-06-01T21:44:26.871Z,60.93
2018-06-01T21:46:55.559Z,54.30
2018-06-01T21:49:23.675Z,49.63
2018-06-01T21:51:51.975Z,48.83
2018-06-01T21:54:20.557Z,51.00
2018-06-01T21:56:48.788Z,53.07
2018-06-01T21:59:20.747Z,52.13
2018-06-01T22:01:49.658Z,50.10
2018-06-01T22:04:17.753Z,51.67
2018-06-01T22:06:45.878Z,53.60
2018-06-01T22:09:15.383Z,54.50
2018-06-01T22:11:43.524Z,53.00
2018-06-01T22:14:11.948Z,51.07
2018-06-01T22:16:40.188Z,54.27
2018-06-01T22:19:08.321Z,52.97
2018-06-01T22:21:36.872Z,51.90
2018-06-01T22:24:05.205Z,52.73
2018-06-01T22:26:33.328Z,53.40
2018-06-01T22:29:02.313Z,53.13
2018-06-01T22:31:31.361Z,54.27
2018-06-01T22:33:59.674Z,52.03
2018-06-01T22:36:28.676Z,54.20
2018-06-01T22:38:57.544Z,54.00
2018-06-01T22:41:25.861Z,50.50
2018-06-01T22:43:54.009Z,53.00
2018-06-01T22:46:22.144Z,52.97
2018-06-01T22:48:50.236Z,53.13
2018-06-01T22:51:19.143Z,52.37
2018-06-01T22:53:47.353Z,52.27
2018-06-01T22:56:15.805Z,51.53
2018-06-01T22:58:45.014Z,50.50
2018-06-01T23:01:15.616Z,50.17
2018-06-01T23:03:43.893Z,53.67
2018-06-01T23:06:12.842Z,49.93
2018-06-01T23:08:41.005Z,52.27
2018-06-01T23:11:10.128Z,49.77
2018-06-01T23:13:38.641Z,50.27
2018-06-01T23:16:06.835Z,48.23
2018-06-01T23:18:35.828Z,47.33
2018-06-01T23:21:04.183Z,46.40
2018-06-01T23:23:32.309Z,47.57
2018-06-01T23:26:02.153Z,46.23
2018-06-01T23:28:30.575Z,49.23
2018-06-01T23:31:00.431Z,48.03
2018-06-01T23:33:29.351Z,48.10
2018-06-01T23:35:57.631Z,50.33
2018-06-01T23:38:26.614Z,51.67
2018-06-01T23:40:55.686Z,50.27
2018-06-01T23:43:23.888Z,53.63
2018-06-01T23:45:52.801Z,53.30
2018-06-01T23:48:21.659Z,53.80
2018-06-01T23:50:49.937Z,52.50
2018-06-01T23:53:18.803Z,54.53
2018-06-01T23:55:47.035Z,55.70
2018-06-01T23:58:16.650Z,53.80
